createdAt,value
2022-09-24T00:00:11.699Z,95257.67
2022-09-24T00:02:38.082Z,95253.33
2022-09-24T00:05:04.390Z,95261.91
2022-09-24T00:07:30.733Z,95257.67
2022-09-24T00:09:57.077Z,95255.23
2022-09-24T00:12:23.421Z,95251.81
2022-09-24T00:14:49.754Z,95254.04
2022-09-24T00:17:16.090Z,95256.27
2022-09-24T00:19:42.440Z,95261.42
2022-09-24T00:22:08.778Z,95260.85
2022-09-24T00:24:35.119Z,95258.98
2022-09-24T00:27:01.463Z,95259.80
2022-09-24T00:29:27.806Z,95257.69
2022-09-24T00:31:54.222Z,95256.76
2022-09-24T00:34:20.498Z,95256.03
2022-09-24T00:36:46.960Z,95254.88
2022-09-24T00:39:13.191Z,95253.45
2022-09-24T00:41:39.543Z,95255.35
2022-09-24T00:44:05.907Z,95255.35
2022-09-24T00:46:32.273Z,95258.29
2022-09-24T00:48:58.591Z,95249.00
2022-09-24T00:51:24.930Z,95256.28
2022-09-24T00:53:51.275Z,95256.28
2022-09-24T00:56:17.619Z,95253.48
2022-09-24T00:58:43.962Z,95253.83
2022-09-24T01:01:10.500Z,95256.88
2022-09-24T01:03:36.665Z,95252.65
2022-09-24T01:06:03.014Z,95250.42
2022-09-24T01:08:29.369Z,95245.73
2022-09-24T01:10:55.712Z,95240.67
2022-09-24T01:13:22.091Z,95234.58
2022-09-24T01:15:48.495Z,95238.92
2022-09-24T01:18:14.825Z,95238.59
2022-09-24T01:20:41.188Z,95239.88
2022-09-24T01:23:07.527Z,95238.34
2022-09-24T01:25:33.866Z,95243.86
2022-09-24T01:28:00.224Z,95242.20
2022-09-24T01:30:26.571Z,95238.47
2022-09-24T01:32:52.914Z,95233.31
2022-09-24T01:35:19.256Z,95235.99
2022-09-24T01:37:45.609Z,95228.51
2022-09-24T01:40:12.000Z,95225.21
2022-09-24T01:42:38.294Z,95236.36
2022-09-24T01:45:04.636Z,95237.28
2022-09-24T01:47:34.426Z,95237.28
2022-09-24T01:49:57.329Z,95243.73
2022-09-24T01:52:23.683Z,95241.16
2022-09-24T01:54:50.022Z,95244.34
2022-09-24T01:57:18.711Z,95246.09
2022-09-24T01:59:45.062Z,95238.35
2022-09-24T02:02:11.467Z,95239.64
2022-09-24T02:04:37.751Z,95241.39
2022-09-24T02:07:04.118Z,95245.73
2022-09-24T02:09:30.456Z,95243.16
2022-09-24T02:11:56.809Z,95251.39
2022-09-24T02:14:23.144Z,95258.30
2022-09-24T02:16:49.486Z,95262.28
2022-09-24T02:19:15.904Z,95259.34
2022-09-24T02:21:42.244Z,95271.67
2022-09-24T02:24:08.639Z,95259.45
2022-09-24T02:26:34.929Z,95259.45
2022-09-24T02:29:01.252Z,95273.20
2022-09-24T02:31:27.659Z,95278.23
2022-09-24T02:33:53.948Z,95280.81
2022-09-24T02:36:20.291Z,95286.93
2022-09-24T02:38:46.645Z,95285.14
2022-09-24T02:41:13.018Z,95284.89
2022-09-24T02:43:39.361Z,95290.44
2022-09-24T02:46:05.785Z,95293.59
2022-09-24T02:48:32.057Z,95290.91
2022-09-24T02:50:58.401Z,95294.38
2022-09-24T02:53:24.780Z,95290.51
2022-09-24T02:55:51.129Z,95294.98
2022-09-24T02:58:17.471Z,95300.14
2022-09-24T03:00:43.855Z,95299.77
2022-09-24T03:03:10.285Z,95299.67
2022-09-24T03:05:36.537Z,95300.97
2022-09-24T03:08:02.870Z,95302.03
2022-09-24T03:10:29.227Z,95307.52
2022-09-24T03:12:55.566Z,95298.48
2022-09-24T03:15:23.053Z,95298.98
2022-09-24T03:17:49.390Z,95299.91
2022-09-24T03:20:15.743Z,95306.83
2022-09-24T03:22:42.087Z,95299.55
2022-09-24T03:25:08.437Z,95298.39
2022-09-24T03:27:34.786Z,95297.80
2022-09-24T03:30:01.131Z,95298.86
2022-09-24T03:32:27.474Z,95303.88
2022-09-24T03:34:53.830Z,95304.48
2022-09-24T03:37:20.169Z,95306.59
2022-09-24T03:39:46.511Z,95309.17
2022-09-24T03:42:12.852Z,95311.39
2022-09-24T03:44:39.202Z,95313.15
2022-09-24T03:47:05.559Z,95317.84
2022-09-24T03:49:33.171Z,95318.77
2022-09-24T03:51:58.235Z,95323.14
2022-09-24T03:54:24.579Z,95323.47
2022-09-24T03:56:50.925Z,95325.36
2022-09-24T03:59:17.306Z,95318.44
2022-09-24T04:01:43.687Z,95320.30
2022-09-24T04:04:10.011Z,95324.06
2022-09-24T04:06:36.346Z,95325.36
2022-09-24T04:09:02.692Z,95321.72
2022-09-24T04:11:29.031Z,95327.58
2022-09-24T04:13:55.387Z,95324.62
2022-09-24T04:16:21.842Z,95320.89
2022-09-24T04:18:48.075Z,95319.60
2022-09-24T04:21:14.415Z,95323.94
2022-09-24T04:23:40.755Z,95329.45
2022-09-24T04:26:07.104Z,95330.38
2022-09-24T04:28:33.519Z,95332.96
2022-09-24T04:30:59.912Z,95334.72
2022-09-24T04:33:26.208Z,95339.05
2022-09-24T04:35:52.551Z,95341.63
2022-09-24T04:38:18.895Z,95345.99
2022-09-24T04:40:45.324Z,95346.79
2022-09-24T04:43:11.612Z,95350.66
2022-09-24T04:45:40.410Z,95352.45
2022-09-24T04:48:06.759Z,95355.48
2022-09-24T04:50:33.111Z,95357.11
2022-09-24T04:52:59.455Z,95352.55
2022-09-24T04:55:25.803Z,95348.31
2022-09-24T04:57:52.150Z,95346.56
2022-09-24T05:00:18.527Z,95345.99
2022-09-24T05:02:45.000Z,95343.05
2022-09-24T05:05:11.213Z,95349.03
2022-09-24T05:07:37.558Z,95348.81
2022-09-24T05:10:03.904Z,95353.60
2022-09-24T05:12:30.274Z,95355.45
2022-09-24T05:14:56.617Z,95350.20
2022-09-24T05:17:22.968Z,95354.30
2022-09-24T05:19:49.309Z,95351.36
2022-09-24T05:22:15.646Z,95353.93
2022-09-24T05:24:42.017Z,95355.59
2022-09-24T05:27:08.326Z,95354.30
2022-09-24T05:29:34.698Z,95359.09
2022-09-24T05:32:01.048Z,95355.59
2022-09-24T05:34:27.390Z,95356.61
2022-09-24T05:36:53.757Z,95357.90
2022-09-24T05:39:20.103Z,95360.97
2022-09-24T05:41:46.445Z,95360.02
2022-09-24T05:44:12.786Z,95366.23
2022-09-24T05:46:39.196Z,95362.83
2022-09-24T05:49:05.524Z,95372.81
2022-09-24T05:51:31.909Z,95375.39
2022-09-24T05:53:59.247Z,95375.13
2022-09-24T05:56:24.588Z,95371.25
2022-09-24T05:58:50.922Z,95373.83
2022-09-24T06:01:17.269Z,95374.42
2022-09-24T06:03:43.605Z,95378.16
2022-09-24T06:06:09.951Z,95379.95
2022-09-24T06:08:36.285Z,95377.10
2022-09-24T06:11:02.667Z,95380.17
2022-09-24T06:13:28.972Z,95382.26
2022-09-24T06:15:55.355Z,95385.89
2022-09-24T06:18:21.661Z,95381.09
2022-09-24T06:20:47.997Z,95386.12
2022-09-24T06:23:14.348Z,95385.53
2022-09-24T06:25:40.694Z,95388.47
2022-09-24T06:28:07.027Z,95389.39
2022-09-24T06:30:33.443Z,95393.16
2022-09-24T06:32:59.780Z,95389.30
2022-09-24T06:35:26.131Z,95394.81
2022-09-24T06:37:52.470Z,95389.76
2022-09-24T06:40:21.947Z,95388.93
2022-09-24T06:42:48.261Z,95387.55
2022-09-24T06:45:14.610Z,95395.84
2022-09-24T06:50:25.337Z,95404.30
2022-09-24T06:52:51.606Z,95398.42
2022-09-24T06:55:17.992Z,95398.91
2022-09-24T06:57:44.341Z,95397.86
2022-09-24T07:00:10.698Z,95395.60
2022-09-24T07:02:37.105Z,95399.25
2022-09-24T07:05:03.402Z,95396.80
2022-09-24T07:07:29.740Z,95395.97
2022-09-24T07:09:56.098Z,95398.55
2022-09-24T07:12:22.451Z,95393.62
2022-09-24T07:14:48.816Z,95400.30
2022-09-24T07:17:15.165Z,95406.88
2022-09-24T07:19:41.544Z,95401.00
2022-09-24T07:22:07.905Z,95401.95
2022-09-24T07:24:34.243Z,95394.55
2022-09-24T07:27:00.593Z,95392.93
2022-09-24T07:29:26.941Z,95393.85
2022-09-24T07:31:53.294Z,95391.17
2022-09-24T07:34:19.648Z,95388.93
2022-09-24T07:36:46.016Z,95386.48
2022-09-24T07:39:12.370Z,95389.39
2022-09-24T07:41:42.027Z,95390.22
2022-09-24T07:44:05.120Z,95389.30
2022-09-24T07:46:31.464Z,95391.88
2022-09-24T07:48:57.754Z,95383.21
2022-09-24T07:51:24.104Z,95376.87
2022-09-24T07:53:50.448Z,95380.88
2022-09-24T07:56:16.839Z,95379.22
2022-09-24T07:58:43.182Z,95380.50
2022-09-24T08:01:09.530Z,95382.63
2022-09-24T08:03:35.975Z,95378.98
2022-09-24T08:06:02.232Z,95379.12
2022-09-24T08:08:28.595Z,95384.52
2022-09-24T08:10:54.939Z,95379.72
2022-09-24T08:13:26.734Z,95376.19
2022-09-24T08:15:47.693Z,95378.66
2022-09-24T08:18:14.003Z,95379.35
2022-09-24T08:20:40.354Z,95371.98
2022-09-24T08:23:06.708Z,95379.72
2022-09-24T08:25:33.097Z,95377.47
2022-09-24T08:27:59.449Z,95371.62
2022-09-24T08:30:25.809Z,95377.60
2022-09-24T08:32:52.201Z,95374.56
2022-09-24T08:35:18.542Z,95370.69
2022-09-24T08:37:44.931Z,95366.83
2022-09-24T08:40:11.314Z,95367.28
2022-09-24T08:42:37.637Z,95365.86
2022-09-24T08:45:03.975Z,95361.20
2022-09-24T08:47:30.329Z,95361.07
2022-09-24T08:49:56.685Z,95365.77
2022-09-24T08:52:23.030Z,95366.23
2022-09-24T08:54:49.381Z,95364.34
2022-09-24T08:57:15.730Z,95363.19
2022-09-24T08:59:42.076Z,95351.45
2022-09-24T09:02:08.543Z,95353.93
2022-09-24T09:04:34.828Z,95348.77
2022-09-24T09:07:01.263Z,95351.13
2022-09-24T09:09:27.533Z,95348.08
2022-09-24T09:11:53.886Z,95348.77
2022-09-24T09:14:20.256Z,95341.04
2022-09-24T09:16:46.613Z,95338.33
2022-09-24T09:19:12.968Z,95340.58
2022-09-24T09:21:39.302Z,95341.27
2022-09-24T09:24:05.654Z,95334.95
2022-09-24T09:26:32.005Z,95337.86
2022-09-24T09:28:58.351Z,95338.69
2022-09-24T09:31:25.053Z,95341.27
2022-09-24T09:33:51.358Z,95339.65
2022-09-24T09:36:17.706Z,95328.97
2022-09-24T09:38:44.065Z,95330.72
2022-09-24T09:41:10.417Z,95319.48
2022-09-24T09:43:36.761Z,95316.90
2022-09-24T09:46:03.198Z,95316.90
2022-09-24T09:48:29.495Z,95316.30
2022-09-24T09:50:55.843Z,95309.85
2022-09-24T09:53:22.206Z,95315.02
2022-09-24T09:55:48.570Z,95308.10
2022-09-24T09:58:14.913Z,95304.69
2022-09-24T10:00:42.109Z,95298.61
2022-09-24T10:03:08.504Z,95294.05
2022-09-24T10:05:34.833Z,95289.94
2022-09-24T10:08:01.183Z,95282.44
2022-09-24T10:10:27.560Z,95284.31
2022-09-24T10:12:53.909Z,95273.53
2022-09-24T10:15:20.264Z,95273.63
2022-09-24T10:17:46.629Z,95269.30
2022-09-24T10:20:12.981Z,95272.59
2022-09-24T10:22:39.325Z,95269.52
2022-09-24T10:25:05.690Z,95268.95
2022-09-24T10:27:32.062Z,95267.20
2022-09-24T10:29:58.443Z,95262.86
2022-09-24T10:32:24.793Z,95259.47
2022-09-24T10:34:51.162Z,95263.81
2022-09-24T10:37:17.509Z,95258.88
2022-09-24T10:39:43.861Z,95255.27
2022-09-24T10:42:10.217Z,95257.34
2022-09-24T10:44:36.584Z,95251.15
2022-09-24T10:47:03.007Z,95251.73
2022-09-24T10:49:29.279Z,95250.31
2022-09-24T10:51:55.629Z,95253.94
2022-09-24T10:54:21.974Z,95254.16
2022-09-24T10:56:48.338Z,95249.12
2022-09-24T10:59:14.703Z,95249.80
2022-09-24T11:01:41.116Z,95243.14
2022-09-24T11:04:07.516Z,95243.70
2022-09-24T11:06:33.798Z,95243.45
2022-09-24T11:09:00.149Z,95238.65
2022-09-24T11:11:26.533Z,95247.80
2022-09-24T11:13:52.877Z,95245.33
2022-09-24T11:16:19.297Z,95247.31
2022-09-24T11:18:45.573Z,95238.95
2022-09-24T11:21:11.935Z,95240.61
2022-09-24T11:23:38.285Z,95232.15
2022-09-24T11:26:04.637Z,95231.30
2022-09-24T11:28:30.988Z,95228.36
2022-09-24T11:30:57.387Z,95220.14
2022-09-24T11:33:23.689Z,95217.17
2022-09-24T11:35:50.039Z,95210.49
2022-09-24T11:38:16.423Z,95205.44
2022-09-24T11:40:42.900Z,95199.44
2022-09-24T11:43:09.133Z,95189.69
2022-09-24T11:45:35.480Z,95176.55
2022-09-24T11:48:01.844Z,95193.27
2022-09-24T11:50:28.187Z,95184.58
2022-09-24T11:52:54.575Z,95177.25
2022-09-24T11:55:20.924Z,95170.68
2022-09-24T11:57:47.277Z,95182.84
2022-09-24T12:00:13.636Z,95183.52
2022-09-24T12:05:24.242Z,95156.42
2022-09-24T12:07:50.635Z,95166.77
2022-09-24T12:10:16.964Z,95171.88
2022-09-24T12:12:43.300Z,95174.05
2022-09-24T12:15:09.642Z,95174.05
2022-09-24T12:17:35.973Z,95172.47
2022-09-24T12:20:02.359Z,95172.47
2022-09-24T12:22:28.694Z,95176.91
2022-09-24T12:24:55.048Z,95170.80
2022-09-24T12:27:21.381Z,95170.80
2022-09-24T12:29:47.726Z,95153.53
2022-09-24T12:32:14.062Z,95153.53
2022-09-24T12:34:40.397Z,95164.80
2022-09-24T12:37:06.749Z,95164.34
2022-09-24T12:39:33.092Z,95162.83
2022-09-24T12:41:59.433Z,95162.83
2022-09-24T12:44:25.772Z,95158.86
2022-09-24T12:46:52.276Z,95094.16
2022-09-24T12:49:18.462Z,95155.48
2022-09-24T12:51:44.775Z,95158.48
2022-09-24T12:54:11.131Z,95146.54
2022-09-24T12:56:37.459Z,95150.48
2022-09-24T12:59:03.801Z,95148.45
2022-09-24T13:01:30.289Z,95145.33
2022-09-24T13:03:56.547Z,95149.47
2022-09-24T13:06:22.877Z,95144.23
2022-09-24T13:08:49.247Z,95143.72
2022-09-24T13:11:15.582Z,95142.07
2022-09-24T13:13:41.953Z,95138.63
2022-09-24T13:16:08.321Z,95138.97
2022-09-24T13:18:34.636Z,95140.91
2022-09-24T13:21:00.978Z,95140.27
2022-09-24T13:23:27.334Z,95142.04
2022-09-24T13:25:53.697Z,95132.73
2022-09-24T13:28:20.041Z,95136.38
2022-09-24T13:30:46.381Z,95133.20
2022-09-24T13:33:12.725Z,95135.94
2022-09-24T13:35:39.066Z,95135.38
2022-09-24T13:38:05.431Z,95128.92
2022-09-24T13:40:31.798Z,95121.77
2022-09-24T13:42:58.142Z,95119.57
2022-09-24T13:45:24.480Z,95117.97
2022-09-24T13:47:50.825Z,95115.11
2022-09-24T13:50:17.166Z,95116.33
2022-09-24T13:52:43.508Z,95115.06
2022-09-24T13:55:09.840Z,95111.84
2022-09-24T13:57:36.192Z,95112.98
2022-09-24T14:00:02.573Z,95111.98
2022-09-24T14:02:28.983Z,95101.25
2022-09-24T14:04:55.250Z,95101.32
2022-09-24T14:07:21.597Z,95103.41
2022-09-24T14:09:47.940Z,95102.40
2022-09-24T14:12:14.291Z,95103.65
2022-09-24T14:14:40.634Z,95099.81
2022-09-24T14:17:07.018Z,95099.41
2022-09-24T14:19:33.331Z,95099.20
2022-09-24T14:21:59.676Z,95104.55
2022-09-24T14:24:26.012Z,95105.63
2022-09-24T14:26:53.652Z,95097.11
2022-09-24T14:29:18.743Z,95094.80
2022-09-24T14:31:45.077Z,95102.16
2022-09-24T14:34:11.419Z,95100.67
2022-09-24T14:36:37.761Z,95094.59
2022-09-24T14:39:04.183Z,95099.11
2022-09-24T14:41:30.438Z,95098.88
2022-09-24T14:43:56.771Z,95101.70
2022-09-24T14:46:23.192Z,95094.40
2022-09-24T14:48:49.467Z,95095.55
2022-09-24T14:51:15.877Z,95103.75
2022-09-24T14:53:42.225Z,95100.92
2022-09-24T14:56:08.570Z,95106.27
2022-09-24T14:58:34.911Z,95101.08
2022-09-24T15:01:01.253Z,95103.41
2022-09-24T15:03:27.593Z,95100.94
2022-09-24T15:05:54.039Z,95097.28
2022-09-24T15:08:20.279Z,95100.94
2022-09-24T15:10:46.619Z,95099.24
2022-09-24T15:13:12.974Z,95100.66
2022-09-24T15:15:39.334Z,95099.44
2022-09-24T15:18:05.652Z,95101.16
2022-09-24T15:20:32.003Z,95103.39
2022-09-24T15:22:58.359Z,95099.23
2022-09-24T15:25:24.699Z,95101.47
2022-09-24T15:27:51.032Z,95105.36
2022-09-24T15:30:17.379Z,95105.31
2022-09-24T15:32:43.712Z,95106.25
2022-09-24T15:35:10.055Z,95108.30
2022-09-24T15:37:36.388Z,95110.14
2022-09-24T15:40:02.734Z,95115.05
2022-09-24T15:42:29.080Z,95120.31
2022-09-24T15:44:55.428Z,95123.17
2022-09-24T15:47:21.765Z,95125.27
2022-09-24T15:49:48.146Z,95120.63
2022-09-24T15:52:14.478Z,95124.66
2022-09-24T15:54:40.821Z,95121.28
2022-09-24T15:57:07.178Z,95126.46
2022-09-24T15:59:33.510Z,95127.25
2022-09-24T16:01:59.886Z,95128.81
2022-09-24T16:04:26.185Z,95128.86
2022-09-24T16:06:52.522Z,95132.00
2022-09-24T16:09:18.865Z,95135.21
2022-09-24T16:11:45.196Z,95133.09
2022-09-24T16:14:11.542Z,95137.13
2022-09-24T16:16:38.874Z,95141.95
2022-09-24T16:19:04.234Z,95139.48
2022-09-24T16:21:30.570Z,95142.23
2022-09-24T16:23:58.145Z,95148.11
2022-09-24T16:26:23.248Z,95148.11
2022-09-24T16:28:49.610Z,95141.56
2022-09-24T16:31:16.025Z,95148.03
2022-09-24T16:33:42.283Z,95151.91
2022-09-24T16:36:08.614Z,95154.41
2022-09-24T16:38:34.985Z,95157.97
2022-09-24T16:41:01.364Z,95155.77
2022-09-24T16:43:27.687Z,95163.42
2022-09-24T16:45:54.047Z,95169.53
2022-09-24T16:48:20.396Z,95167.56
2022-09-24T16:50:46.753Z,95173.53
2022-09-24T16:53:15.062Z,95165.09
2022-09-24T16:55:39.425Z,95169.59
2022-09-24T16:58:05.774Z,95170.18
2022-09-24T17:00:32.118Z,95159.48
2022-09-24T17:02:58.523Z,95178.92
2022-09-24T17:05:24.827Z,95180.68
2022-09-24T17:07:51.161Z,95190.33
2022-09-24T17:10:17.496Z,95188.83
2022-09-24T17:12:43.843Z,95184.62
2022-09-24T17:15:10.176Z,95196.59
2022-09-24T17:17:44.308Z,95196.73
2022-09-24T17:20:02.853Z,95199.59
2022-09-24T17:22:29.189Z,95202.49
2022-09-24T17:24:55.521Z,95212.52
2022-09-24T17:27:21.862Z,95212.52
2022-09-24T17:29:48.198Z,95207.93
2022-09-24T17:32:14.539Z,95211.95
2022-09-24T17:34:45.551Z,95204.45
2022-09-24T17:37:07.251Z,95215.95
2022-09-24T17:39:33.584Z,95213.36
2022-09-24T17:41:59.921Z,95208.34
2022-09-24T17:44:26.267Z,95217.50
2022-09-24T17:46:53.624Z,95210.69
2022-09-24T17:49:18.934Z,95214.92
2022-09-24T17:51:45.279Z,95214.92
2022-09-24T17:54:11.645Z,95221.03
2022-09-24T17:56:37.989Z,95225.88
2022-09-24T17:59:04.335Z,95218.12
2022-09-24T18:01:30.772Z,95203.88
2022-09-24T18:03:57.042Z,95203.88
2022-09-24T18:06:23.384Z,95228.94
2022-09-24T18:08:49.717Z,95217.25
2022-09-24T18:11:16.068Z,95217.25
2022-09-24T18:13:42.407Z,95216.08
2022-09-24T18:16:08.817Z,95216.08
2022-09-24T18:18:35.069Z,95237.31
2022-09-24T18:21:01.456Z,95236.02
2022-09-24T18:23:27.797Z,95238.93
2022-09-24T18:25:54.179Z,95233.76
2022-09-24T18:28:20.478Z,95237.84
2022-09-24T18:30:47.183Z,95233.44
2022-09-24T18:33:13.465Z,95238.36
2022-09-24T18:35:39.835Z,95247.05
2022-09-24T18:38:06.168Z,95238.72
2022-09-24T18:40:32.593Z,95231.38
2022-09-24T18:42:58.853Z,95245.91
2022-09-24T18:45:25.185Z,95248.64
2022-09-24T18:47:51.535Z,95245.23
2022-09-24T18:50:17.877Z,95225.30
2022-09-24T18:52:44.250Z,95252.99
2022-09-24T18:55:10.580Z,95253.56
2022-09-24T18:57:36.922Z,95238.10
2022-09-24T19:00:03.254Z,95252.02
2022-09-24T19:02:29.801Z,95238.88
2022-09-24T19:04:55.931Z,95238.88
2022-09-24T19:07:22.273Z,95243.59
2022-09-24T19:09:48.607Z,95242.76
2022-09-24T19:12:14.966Z,95242.66
2022-09-24T19:14:41.317Z,95240.69
2022-09-24T19:17:07.648Z,95245.39
2022-09-24T19:19:33.984Z,95238.00
2022-09-24T19:22:00.338Z,95243.64
2022-09-24T19:24:26.707Z,95245.41
2022-09-24T19:26:53.046Z,95245.41
2022-09-24T19:29:19.380Z,95233.57
2022-09-24T19:31:45.761Z,95233.57
2022-09-24T19:34:12.082Z,95253.52
2022-09-24T19:36:42.530Z,95256.80
2022-09-24T19:39:04.758Z,95256.80
2022-09-24T19:41:31.104Z,95260.47
2022-09-24T19:43:57.447Z,95258.70
2022-09-24T19:46:23.829Z,95263.52
2022-09-24T19:48:50.139Z,95260.25
2022-09-24T19:51:16.483Z,95266.50
2022-09-24T19:53:42.848Z,95263.30
2022-09-24T19:56:09.183Z,95262.84
2022-09-24T19:58:35.537Z,95262.84
2022-09-24T20:01:01.866Z,95257.70
2022-09-24T20:03:28.205Z,95251.04
2022-09-24T20:05:54.555Z,95251.04
2022-09-24T20:08:20.885Z,95269.45
2022-09-24T20:10:47.215Z,95269.09
2022-09-24T20:13:13.553Z,95254.34
2022-09-24T20:15:39.932Z,95270.39
2022-09-24T20:18:06.228Z,95276.64
2022-09-24T20:20:32.580Z,95276.64
2022-09-24T20:22:58.898Z,95269.70
2022-09-24T20:25:25.240Z,95272.08
2022-09-24T20:27:51.572Z,95274.30
2022-09-24T20:30:17.915Z,95274.30
2022-09-24T20:32:44.260Z,95268.31
2022-09-24T20:35:10.593Z,95269.74
2022-09-24T20:37:36.927Z,95273.63
2022-09-24T20:40:03.272Z,95247.71
2022-09-24T20:42:30.939Z,95247.71
2022-09-24T20:44:55.943Z,95272.58
2022-09-24T20:47:22.279Z,95266.88
2022-09-24T20:49:48.611Z,95274.84
2022-09-24T20:52:14.944Z,95283.64
2022-09-24T20:54:41.285Z,95283.64
2022-09-24T20:57:07.631Z,95274.63
2022-09-24T20:59:34.010Z,95282.92
2022-09-24T21:02:00.414Z,95283.06
2022-09-24T21:04:26.684Z,95278.25
2022-09-24T21:06:53.024Z,95268.63
2022-09-24T21:09:19.362Z,95275.42
2022-09-24T21:11:45.697Z,95275.42
2022-09-24T21:14:12.121Z,95276.50
2022-09-24T21:16:38.432Z,95284.25
2022-09-24T21:19:04.751Z,95285.54
2022-09-24T21:21:31.118Z,95285.54
2022-09-24T21:23:57.474Z,95288.13
2022-09-24T21:26:23.810Z,95280.77
2022-09-24T21:28:50.155Z,95280.77
2022-09-24T21:31:16.573Z,95285.79
2022-09-24T21:33:42.836Z,95279.47
2022-09-24T21:36:09.168Z,95279.47
2022-09-24T21:38:35.523Z,95279.58
2022-09-24T21:41:01.863Z,95276.64
2022-09-24T21:43:34.440Z,95271.00
2022-09-24T21:45:54.598Z,95271.00
2022-09-24T21:48:20.965Z,95276.64
2022-09-24T21:50:47.307Z,95278.28
2022-09-24T21:53:13.647Z,95250.39
2022-09-24T21:55:39.991Z,95250.39
2022-09-24T21:58:06.327Z,95272.69
2022-09-24T22:00:32.672Z,95271.50
2022-09-24T22:02:59.098Z,95274.45
2022-09-24T22:05:25.354Z,95274.30
2022-09-24T22:07:51.700Z,95274.91
2022-09-24T22:10:18.046Z,95272.94
2022-09-24T22:12:44.400Z,95267.41
2022-09-24T22:15:10.747Z,95267.87
2022-09-24T22:17:37.094Z,95273.87
2022-09-24T22:20:03.430Z,95274.69
2022-09-24T22:22:29.779Z,95275.63
2022-09-24T22:24:56.138Z,95274.80
2022-09-24T22:27:22.552Z,95281.26
2022-09-24T22:29:48.948Z,95277.85
2022-09-24T22:32:15.348Z,95273.65
2022-09-24T22:34:41.755Z,95276.70
2022-09-24T22:37:08.146Z,95279.28
2022-09-24T22:39:34.544Z,95279.39
2022-09-24T22:42:00.947Z,95266.28
2022-09-24T22:44:27.337Z,95266.28
2022-09-24T22:46:53.739Z,95280.36
2022-09-24T22:49:20.174Z,95276.95
2022-09-24T22:51:46.578Z,95272.36
2022-09-24T22:54:13.084Z,95274.83
2022-09-24T22:56:39.370Z,95279.64
2022-09-24T22:59:05.774Z,95272.85
2022-09-24T23:01:32.312Z,95276.01
2022-09-24T23:03:58.450Z,95275.55
2022-09-24T23:06:24.783Z,95271.20
2022-09-24T23:08:51.136Z,95272.13
2022-09-24T23:11:17.481Z,95272.60
2022-09-24T23:13:43.809Z,95279.06
2022-09-24T23:16:10.147Z,95277.08
2022-09-24T23:18:36.498Z,95282.72
2022-09-24T23:21:02.819Z,95282.25
2022-09-24T23:23:29.165Z,95282.25
2022-09-24T23:25:55.511Z,95272.12
2022-09-24T23:28:21.850Z,95273.31
2022-09-24T23:30:48.274Z,95273.53
2022-09-24T23:33:14.534Z,95269.55
2022-09-24T23:35:40.878Z,95266.25
2022-09-24T23:38:07.253Z,95267.21
2022-09-24T23:40:33.643Z,95268.50
2022-09-24T23:42:59.948Z,95269.33
2022-09-24T23:45:26.282Z,95271.55
2022-09-24T23:47:52.625Z,95275.89
2022-09-24T23:50:18.967Z,95277.19
2022-09-24T23:52:45.308Z,95279.41
2022-09-24T23:55:11.664Z,95279.41
2022-09-24T23:57:38.000Z,95270.51
